createdAt,value
2019-03-16T11:04:02.500Z,6.10
2019-03-16T11:06:30.292Z,6.37
2019-03-16T11:08:57.982Z,5.33
2019-03-16T11:11:25.692Z,5.27
2019-03-16T11:13:53.382Z,5.50
2019-03-16T11:16:22.412Z,4.70
2019-03-16T11:18:50.113Z,4.57
2019-03-16T11:21:17.812Z,5.17
2019-03-16T11:23:45.432Z,4.33
2019-03-16T11:26:13.011Z,4.20
2019-03-16T11:28:40.692Z,4.03
2019-03-16T11:31:08.322Z,4.20
2019-03-16T11:33:36.022Z,4.00
2019-03-16T11:36:03.732Z,4.20
2019-03-16T11:38:31.452Z,3.47
2019-03-16T11:40:59.152Z,3.93
2019-03-16T11:43:26.842Z,3.30
2019-03-16T12:02:40.202Z,2.10
2019-03-16T12:05:09.612Z,2.10
2019-03-16T12:07:37.632Z,1.53
2019-03-16T12:10:07.053Z,2.30
2019-03-16T12:12:34.852Z,1.80
2019-03-16T12:15:02.562Z,1.90
2019-03-16T12:17:34.579Z,2.17
2019-03-16T12:20:02.362Z,1.87
2019-03-16T12:22:30.271Z,1.50
2019-03-16T12:24:58.082Z,1.87
2019-03-16T12:27:25.702Z,2.00
2019-03-16T12:29:53.313Z,1.73
2019-03-16T12:34:53.897Z,1.60
2019-03-16T12:37:22.460Z,1.63
2019-03-16T12:39:57.306Z,1.80
2019-03-16T12:42:32.302Z,2.00
2019-03-16T12:44:59.922Z,1.90
2019-03-16T12:47:27.550Z,1.90
2019-03-16T12:49:55.352Z,1.83
2019-03-16T12:52:23.023Z,1.70
2019-03-16T12:54:50.613Z,1.73
2019-03-16T12:57:18.362Z,1.80
2019-03-16T12:59:47.347Z,2.37
2019-03-16T13:02:15.359Z,1.80
2019-03-16T13:04:43.075Z,1.80
2019-03-16T13:07:10.812Z,1.80
2019-03-16T13:09:38.417Z,2.07
2019-03-16T13:12:06.432Z,1.77
2019-03-16T13:14:34.063Z,1.70
2019-03-16T13:17:01.692Z,1.77
2019-03-16T13:19:30.312Z,1.97
2019-03-16T13:21:57.927Z,1.87
2019-03-16T13:24:25.506Z,1.40
2019-03-16T13:26:53.712Z,1.77
2019-03-16T13:29:21.452Z,1.73
2019-03-16T13:31:49.062Z,2.07
2019-03-16T13:34:16.782Z,1.90
2019-03-16T13:36:44.422Z,1.83
2019-03-16T13:39:12.032Z,1.97
2019-03-16T13:41:43.622Z,1.60
2019-03-16T13:44:11.272Z,2.63
2019-03-16T13:46:38.877Z,2.33
2019-03-16T13:49:06.577Z,2.33
2019-03-16T13:51:34.212Z,2.33
2019-03-16T13:54:01.932Z,2.10
2019-03-16T13:56:29.662Z,2.27
2019-03-16T13:58:57.637Z,2.50
2019-03-16T14:01:25.272Z,2.40
2019-03-16T14:03:53.273Z,2.13
2019-03-16T14:06:22.162Z,2.27
2019-03-16T14:08:50.195Z,1.90
2019-03-16T14:11:18.442Z,2.30
2019-03-16T14:13:46.352Z,2.10
2019-03-16T14:16:14.391Z,1.80
2019-03-16T14:18:43.168Z,2.20
2019-03-16T14:21:11.421Z,2.40
2019-03-16T14:23:39.232Z,2.43
2019-03-16T14:26:07.045Z,1.50
2019-03-16T14:28:34.972Z,2.07
2019-03-16T14:31:02.572Z,1.80
2019-03-16T14:33:30.571Z,2.13
2019-03-16T14:35:58.538Z,1.97
2019-03-16T14:38:26.192Z,1.97
2019-03-16T14:40:53.931Z,2.30
2019-03-16T14:43:27.422Z,2.00
2019-03-16T14:45:55.162Z,2.17
2019-03-16T14:48:23.314Z,2.00
2019-03-16T14:50:51.263Z,2.40
2019-03-16T14:53:18.943Z,2.40
2019-03-16T14:55:46.693Z,10.40
2019-03-16T14:58:14.599Z,14.83
2019-03-16T15:00:42.293Z,15.77
2019-03-16T15:03:10.092Z,15.80
2019-03-16T15:05:37.701Z,13.87
2019-03-16T15:08:05.533Z,13.20
2019-03-16T15:10:33.362Z,11.70
2019-03-16T15:13:01.053Z,11.47
2019-03-16T15:15:28.752Z,10.40
2019-03-16T15:17:56.728Z,10.47
2019-03-16T15:20:24.592Z,10.20
2019-03-16T15:22:53.652Z,9.27
2019-03-16T15:25:21.770Z,8.40
2019-03-16T15:27:49.582Z,8.10
2019-03-16T15:30:20.722Z,7.53
2019-03-16T15:32:48.513Z,7.57
2019-03-16T15:35:16.232Z,6.93
2019-03-16T15:37:43.952Z,7.10
2019-03-16T15:40:12.993Z,6.30
2019-03-16T15:42:41.261Z,6.97
2019-03-16T15:45:10.802Z,6.23
2019-03-16T15:47:38.500Z,6.33
2019-03-16T15:50:07.492Z,5.77
2019-03-16T15:52:37.453Z,6.80
2019-03-16T15:55:05.462Z,5.93
2019-03-16T15:57:33.052Z,6.47
2019-03-16T16:00:00.672Z,6.50
2019-03-16T16:02:28.363Z,5.53
2019-03-16T16:04:56.182Z,5.63
2019-03-16T16:07:23.792Z,5.87
2019-03-16T16:09:51.524Z,5.60
2019-03-16T16:12:19.154Z,5.20
2019-03-16T16:14:46.802Z,5.53
2019-03-16T16:17:14.532Z,5.70
2019-03-16T16:19:42.170Z,5.23
2019-03-16T16:22:10.292Z,4.97
2019-03-16T16:24:38.522Z,5.50
2019-03-16T16:27:06.231Z,5.33
2019-03-16T16:29:34.162Z,5.40
2019-03-16T16:32:01.892Z,4.93
2019-03-16T16:34:29.832Z,4.93
2019-03-16T16:36:57.547Z,5.20
2019-03-16T16:39:25.502Z,5.07
2019-03-16T16:41:53.313Z,4.73
2019-03-16T16:44:21.013Z,4.60
2019-03-16T16:46:48.732Z,5.07
2019-03-16T16:49:16.432Z,4.73
2019-03-16T16:51:44.391Z,4.40
2019-03-16T16:54:12.472Z,5.03
2019-03-16T16:56:40.232Z,4.80
2019-03-16T16:59:07.932Z,4.27
2019-03-16T17:01:35.725Z,4.70
2019-03-16T17:04:03.542Z,4.87
2019-03-16T17:06:31.554Z,4.67
2019-03-16T17:08:59.450Z,4.50
2019-03-16T17:11:27.152Z,4.40
2019-03-16T17:13:54.802Z,4.70
2019-03-16T17:16:22.972Z,4.30
2019-03-16T17:18:50.591Z,4.27
2019-03-16T17:21:18.272Z,4.50
2019-03-16T17:23:46.282Z,4.30
2019-03-16T17:26:16.392Z,4.27
2019-03-16T17:28:44.002Z,3.95
2019-03-16T17:31:12.372Z,4.20
2019-03-16T17:33:40.055Z,3.87
2019-03-16T17:36:07.677Z,4.17
2019-03-16T17:38:35.470Z,4.23
2019-03-16T17:41:03.293Z,4.13
2019-03-16T17:43:31.212Z,4.10
2019-03-16T17:45:59.201Z,3.73
2019-03-16T17:48:29.678Z,4.23
2019-03-16T17:50:56.178Z,4.03
2019-03-16T17:53:24.385Z,3.50
2019-03-16T17:55:52.023Z,3.60
2019-03-16T17:58:19.724Z,3.80
2019-03-16T18:00:47.424Z,3.23
2019-03-16T18:03:15.412Z,3.40
2019-03-16T18:05:43.320Z,3.27
2019-03-16T18:08:11.072Z,3.30
2019-03-16T18:10:39.052Z,3.30
2019-03-16T18:13:06.740Z,2.93
2019-03-16T18:15:34.852Z,3.07
2019-03-16T18:18:02.582Z,3.30
2019-03-16T18:20:30.360Z,3.07
2019-03-16T18:22:58.340Z,3.00
2019-03-16T18:25:26.043Z,3.30
2019-03-16T18:27:57.074Z,2.87
2019-03-16T18:30:25.201Z,2.70
2019-03-16T18:32:52.882Z,2.73
2019-03-16T18:35:20.713Z,3.30
2019-03-16T18:37:48.563Z,2.83
2019-03-16T18:40:16.394Z,3.23
2019-03-16T18:42:44.112Z,2.70
2019-03-16T18:45:13.035Z,2.80
2019-03-16T18:47:40.758Z,2.80
2019-03-16T18:50:08.385Z,3.03
2019-03-16T18:52:36.392Z,3.13
2019-03-16T18:55:05.203Z,2.77
2019-03-16T18:57:32.926Z,3.00
2019-03-16T19:00:01.052Z,2.97
2019-03-16T19:02:28.753Z,2.90
2019-03-16T19:04:56.722Z,3.23
2019-03-16T19:07:24.832Z,2.80
2019-03-16T19:09:53.611Z,2.93
2019-03-16T19:12:21.583Z,3.27
2019-03-16T19:14:49.381Z,3.07
2019-03-16T19:17:17.092Z,3.50
2019-03-16T19:19:45.155Z,3.30
2019-03-16T19:22:13.187Z,2.97
2019-03-16T19:24:40.902Z,3.20
2019-03-16T19:27:08.562Z,3.37
2019-03-16T19:29:36.794Z,3.50
2019-03-16T19:32:04.522Z,3.20
2019-03-16T19:34:32.175Z,3.40
2019-03-16T19:37:02.530Z,3.40
2019-03-16T19:39:30.353Z,3.30
2019-03-16T19:41:58.058Z,3.00
2019-03-16T19:44:25.842Z,3.57
2019-03-16T19:46:53.452Z,3.47
2019-03-16T19:49:21.092Z,3.70
2019-03-16T19:51:58.117Z,3.60
2019-03-16T19:54:26.032Z,3.60
2019-03-16T19:56:53.752Z,3.50
2019-03-16T19:59:21.453Z,3.40
2019-03-16T20:01:49.142Z,3.87
2019-03-16T20:04:16.762Z,3.40
2019-03-16T20:06:44.460Z,3.97
2019-03-16T20:09:12.212Z,3.40
2019-03-16T20:11:39.852Z,3.37
2019-03-16T20:14:07.583Z,3.47
2019-03-16T20:16:35.392Z,3.27
2019-03-16T20:19:03.122Z,3.53
2019-03-16T20:21:30.832Z,3.37
2019-03-16T20:23:58.522Z,3.40
2019-03-16T20:26:26.152Z,3.10
2019-03-16T20:28:53.908Z,3.20
2019-03-16T20:31:23.342Z,3.70
2019-03-16T20:33:50.961Z,3.60
2019-03-16T20:36:18.643Z,3.40
2019-03-16T20:38:46.290Z,2.83
2019-03-16T20:41:13.982Z,3.30
2019-03-16T20:43:41.922Z,2.90
2019-03-16T20:46:09.827Z,3.20
2019-03-16T20:48:37.512Z,3.60
2019-03-16T20:51:05.377Z,3.13
2019-03-16T20:53:33.002Z,3.63
2019-03-16T20:56:00.692Z,3.50
2019-03-16T20:58:28.692Z,3.50
2019-03-16T21:00:58.248Z,3.33
2019-03-16T21:03:25.722Z,3.57
2019-03-16T21:05:53.827Z,3.97
2019-03-16T21:08:21.642Z,4.00
2019-03-16T21:10:49.252Z,3.90
2019-03-16T21:13:17.282Z,4.20
2019-03-16T21:15:44.904Z,4.03
2019-03-16T21:18:12.662Z,3.90
2019-03-16T21:20:40.355Z,3.80
2019-03-16T21:23:07.935Z,3.83
2019-03-16T21:25:35.576Z,4.40
2019-03-16T21:28:03.672Z,4.43
2019-03-16T21:30:31.382Z,4.20
2019-03-16T21:33:04.971Z,4.17
2019-03-16T21:35:32.681Z,4.60
2019-03-16T21:38:00.513Z,4.33
2019-03-16T21:40:28.153Z,4.27
2019-03-16T21:42:56.172Z,4.30
2019-03-16T21:45:23.834Z,4.13
2019-03-16T21:47:59.848Z,4.50
2019-03-16T21:50:20.915Z,5.00
2019-03-16T21:52:50.747Z,4.20
2019-03-16T21:55:18.554Z,4.67
2019-03-16T21:57:46.462Z,4.70
2019-03-16T22:00:14.610Z,4.63
2019-03-16T22:02:42.392Z,4.57
2019-03-16T22:05:16.402Z,5.30
2019-03-16T22:07:44.382Z,5.13
2019-03-16T22:10:12.827Z,4.70
2019-03-16T22:12:40.902Z,5.37
2019-03-16T22:15:09.992Z,5.03
2019-03-16T22:17:38.082Z,6.17
2019-03-16T22:20:07.746Z,6.20
2019-03-16T22:22:35.902Z,6.67
2019-03-16T22:25:04.078Z,6.80
2019-03-16T22:27:32.022Z,6.30
2019-03-16T22:29:59.907Z,6.20
2019-03-16T22:32:27.622Z,6.30
2019-03-16T22:34:59.873Z,6.60
2019-03-16T22:37:27.512Z,6.10
2019-03-16T22:42:32.682Z,6.47
2019-03-16T22:45:00.473Z,6.37
2019-03-16T22:47:28.342Z,5.97
2019-03-16T22:49:56.311Z,6.03
2019-03-16T22:52:23.973Z,6.33
2019-03-16T22:54:51.723Z,6.50
2019-03-16T22:57:20.652Z,6.50
2019-03-16T22:59:48.428Z,6.20
2019-03-16T23:02:16.084Z,7.10
2019-03-16T23:04:44.532Z,6.60
2019-03-16T23:07:12.292Z,6.03
2019-03-16T23:09:40.071Z,5.87
2019-03-16T23:12:08.013Z,6.23
2019-03-16T23:14:38.342Z,5.80
2019-03-16T23:17:06.173Z,6.70
2019-03-16T23:19:34.412Z,6.40
2019-03-16T23:22:02.479Z,5.80
2019-03-16T23:24:30.172Z,6.10
2019-03-16T23:26:58.087Z,6.50
2019-03-16T23:29:25.792Z,6.50
2019-03-16T23:31:53.532Z,6.27
2019-03-16T23:34:21.426Z,6.00
2019-03-16T23:36:49.801Z,6.20
2019-03-16T23:39:17.532Z,6.60
2019-03-16T23:41:45.700Z,6.00
2019-03-16T23:44:13.462Z,6.27
2019-03-16T23:46:41.222Z,6.17
2019-03-16T23:49:09.020Z,5.90
2019-03-16T23:51:36.932Z,5.80
2019-03-16T23:54:04.832Z,5.73
2019-03-16T23:56:32.601Z,6.40
2019-03-16T23:59:00.512Z,5.83
